Time;durP1;ratioP1;P1;durP2;ratioP2;P2;SDS_P1;SDS_P2;PMS_P1;PMS_P2;Temp;Humidity;BMP_temperature;BMP_pressure;BME280_temperature;BME280_humidity;BME280_pressure;Samples;Min_cycle;Max_cycle;Signal;HPM_P1;HPM_P2
2021/10/28 00:14:27;;;;;;;16.83;7.87;;;;;;;;;;4991744;28;20470;-51
2021/10/28 00:16:58;;;;;;;18.47;10.67;;;;;;;;;;4992339;28;20491;-53
2021/10/28 00:19:26;;;;;;;11.87;7.90;;;;;;;;;;4992328;28;20464;-50
2021/10/28 00:21:52;;;;;;;13.03;8.23;;;;;;;;;;4992381;28;20396;-51
2021/10/28 00:24:18;;;;;;;8.47;7.20;;;;;;;;;;4991950;28;20432;-51
2021/10/28 00:26:46;;;;;;;11.70;8.03;;;;;;;;;;4992184;28;20500;-51
2021/10/28 00:29:16;;;;;;;17.83;8.10;;;;;;;;;;4992312;28;20959;-51
2021/10/28 00:31:42;;;;;;;13.50;8.93;;;;;;;;;;4992231;28;20904;-51
2021/10/28 00:34:09;;;;;;;13.07;7.80;;;;;;;;;;4991870;28;20514;-51
2021/10/28 00:36:36;;;;;;;11.67;7.53;;;;;;;;;;4991967;28;20822;-51
2021/10/28 00:39:03;;;;;;;13.07;8.73;;;;;;;;;;4991965;28;20883;-51
2021/10/28 00:41:29;;;;;;;9.73;7.63;;;;;;;;;;4992028;28;20872;-50
2021/10/28 00:43:56;;;;;;;18.50;9.03;;;;;;;;;;4991803;28;20508;-51
2021/10/28 00:46:24;;;;;;;11.83;7.13;;;;;;;;;;4991942;28;20781;-51
2021/10/28 00:48:50;;;;;;;14.23;7.57;;;;;;;;;;4991979;28;20415;-51
2021/10/28 00:51:21;;;;;;;9.50;7.90;;;;;;;;;;4991807;28;20409;-51
2021/10/28 00:53:47;;;;;;;11.63;8.33;;;;;;;;;;4991579;28;20426;-51
2021/10/28 00:56:13;;;;;;;14.70;9.50;;;;;;;;;;4992075;28;20466;-52
2021/10/28 00:58:39;;;;;;;13.07;8.90;;;;;;;;;;4991640;28;20944;-51
2021/10/28 01:01:06;;;;;;;9.30;7.90;;;;;;;;;;4991552;28;20408;-51
2021/10/28 01:03:36;;;;;;;13.60;8.50;;;;;;;;;;4990903;28;20420;-51
2021/10/28 01:06:03;;;;;;;12.70;8.37;;;;;;;;;;4950087;28;1199186;-52
2021/10/28 01:08:29;;;;;;;12.17;8.37;;;;;;;;;;4991206;28;20255;-51
2021/10/28 01:10:56;;;;;;;17.83;10.33;;;;;;;;;;4992525;28;20414;-50
2021/10/28 01:13:23;;;;;;;12.03;9.17;;;;;;;;;;4992095;28;20435;-51
2021/10/28 01:15:49;;;;;;;13.60;9.23;;;;;;;;;;4992420;28;20439;-51
2021/10/28 01:18:17;;;;;;;17.10;10.60;;;;;;;;;;4992238;28;20539;-51
2021/10/28 01:20:44;;;;;;;15.47;9.50;;;;;;;;;;4992937;28;20401;-52
2021/10/28 01:23:13;;;;;;;18.30;9.93;;;;;;;;;;4992006;28;20451;-50
2021/10/28 01:25:39;;;;;;;14.00;10.00;;;;;;;;;;4992338;28;20415;-51
2021/10/28 01:28:07;;;;;;;18.70;10.30;;;;;;;;;;4996037;28;20979;-51
2021/10/28 01:30:33;;;;;;;22.40;10.20;;;;;;;;;;4996334;28;20491;-50
2021/10/28 01:32:58;;;;;;;16.37;9.60;;;;;;;;;;4995870;28;20404;-52
2021/10/28 01:35:25;;;;;;;18.17;10.80;;;;;;;;;;4996221;28;20396;-51
2021/10/28 01:37:50;;;;;;;20.73;10.87;;;;;;;;;;4995942;28;20448;-51
2021/10/28 01:40:17;;;;;;;18.47;10.93;;;;;;;;;;4996121;28;20404;-51
2021/10/28 01:42:50;;;;;;;18.23;11.40;;;;;;;;;;4995850;28;20885;-51
2021/10/28 01:45:17;;;;;;;16.13;9.30;;;;;;;;;;4996041;28;20396;-52
2021/10/28 01:47:43;;;;;;;14.10;9.73;;;;;;;;;;4995875;28;20408;-52
2021/10/28 01:50:10;;;;;;;14.10;9.90;;;;;;;;;;4996007;28;20408;-53
2021/10/28 01:52:38;;;;;;;13.80;9.87;;;;;;;;;;4995721;28;20416;-51
2021/10/28 01:55:06;;;;;;;16.93;9.67;;;;;;;;;;4995783;28;20800;-51
2021/10/28 01:57:32;;;;;;;14.67;10.33;;;;;;;;;;4995823;28;20446;-52
2021/10/28 01:59:58;;;;;;;15.10;10.27;;;;;;;;;;4995628;28;20495;-52
2021/10/28 02:02:24;;;;;;;17.03;11.40;;;;;;;;;;4995641;28;20411;-52
2021/10/28 02:04:50;;;;;;;18.07;10.20;;;;;;;;;;4995520;28;20477;-52
2021/10/28 02:07:15;;;;;;;19.40;11.60;;;;;;;;;;4995498;28;20420;-51
2021/10/28 02:09:41;;;;;;;15.57;10.87;;;;;;;;;;4995597;28;20400;-51
2021/10/28 02:12:08;;;;;;;14.50;10.23;;;;;;;;;;4995572;28;20407;-51
2021/10/28 02:14:34;;;;;;;14.90;9.93;;;;;;;;;;4995078;28;20420;-51
2021/10/28 02:17:00;;;;;;;14.33;10.03;;;;;;;;;;4995433;28;20435;-50
2021/10/28 02:19:26;;;;;;;14.90;10.37;;;;;;;;;;4995324;28;20457;-51
2021/10/28 02:21:52;;;;;;;17.37;10.90;;;;;;;;;;4995385;28;20499;-51
2021/10/28 02:24:18;;;;;;;16.20;10.37;;;;;;;;;;4995052;28;20425;-51
2021/10/28 02:26:44;;;;;;;16.47;10.80;;;;;;;;;;4995213;28;20406;-51
2021/10/28 02:29:10;;;;;;;18.13;10.77;;;;;;;;;;4995159;28;20418;-51
2021/10/28 02:31:36;;;;;;;18.83;11.70;;;;;;;;;;4995219;28;20413;-51
2021/10/28 02:34:02;;;;;;;15.70;10.40;;;;;;;;;;4994947;28;20428;-51
2021/10/28 02:36:28;;;;;;;19.93;10.77;;;;;;;;;;4995003;28;20491;-52
2021/10/28 02:38:54;;;;;;;17.83;10.63;;;;;;;;;;4994657;28;20455;-51
2021/10/28 02:41:21;;;;;;;16.17;10.60;;;;;;;;;;4995044;28;20404;-51
2021/10/28 02:43:47;;;;;;;17.20;10.27;;;;;;;;;;4994630;28;20428;-51
2021/10/28 02:46:13;;;;;;;12.77;9.60;;;;;;;;;;4994960;28;20411;-52
2021/10/28 02:48:38;;;;;;;17.07;10.30;;;;;;;;;;4994782;28;20498;-51
2021/10/28 02:51:04;;;;;;;20.93;9.43;;;;;;;;;;4994778;28;20407;-51
2021/10/28 02:53:30;;;;;;;17.70;11.80;;;;;;;;;;4994509;28;20532;-51
2021/10/28 02:55:56;;;;;;;19.03;10.60;;;;;;;;;;4994763;28;20409;-51
2021/10/28 02:58:22;;;;;;;12.43;9.63;;;;;;;;;;4994464;28;20456;-50
2021/10/28 03:00:49;;;;;;;18.13;11.43;;;;;;;;;;4994659;28;20405;-51
2021/10/28 03:03:15;;;;;;;14.00;9.37;;;;;;;;;;4994381;28;20451;-50
2021/10/28 03:05:40;;;;;;;20.63;11.67;;;;;;;;;;4994384;28;20448;-52
2021/10/28 03:08:06;;;;;;;19.93;12.77;;;;;;;;;;4994528;28;20550;-51
2021/10/28 03:10:33;;;;;;;20.80;11.53;;;;;;;;;;4994517;28;20404;-51
2021/10/28 03:12:59;;;;;;;20.57;10.83;;;;;;;;;;4994130;28;20400;-51
2021/10/28 03:15:29;;;;;;;14.53;10.27;;;;;;;;;;4994417;28;20396;-51
2021/10/28 03:19:06;;;;;;;23.00;12.20;;;;;;;;;;4994312;28;20392;-51
2021/10/28 03:26:25;;;;;;;23.43;11.70;;;;;;;;;;4994180;28;20406;-51
2021/10/28 03:28:51;;;;;;;18.07;10.97;;;;;;;;;;4994143;28;20849;-52
2021/10/28 03:31:17;;;;;;;20.50;11.90;;;;;;;;;;4994124;28;20404;-52
2021/10/28 03:33:46;;;;;;;19.93;12.17;;;;;;;;;;4993630;28;20928;-49
2021/10/28 03:36:19;;;;;;;18.10;11.57;;;;;;;;;;4994022;28;20414;-51
2021/10/28 03:38:58;;;;;;;20.50;12.30;;;;;;;;;;4994085;28;21072;-51
2021/10/28 03:47:20;;;;;;;18.80;11.17;;;;;;;;;;4993990;28;20407;-49
2021/10/28 03:55:34;;;;;;;18.97;11.30;;;;;;;;;;4993696;28;20431;-49
2021/10/28 04:29:54;;;;;;;22.23;14.27;;;;;;;;;;4993003;28;20408;-51
2021/10/28 04:32:21;;;;;;;23.93;13.00;;;;;;;;;;4992966;28;20773;-52
2021/10/28 04:34:47;;;;;;;23.93;13.83;;;;;;;;;;4992818;28;20790;-49
2021/10/28 04:37:13;;;;;;;23.17;13.30;;;;;;;;;;4992884;28;20411;-49
2021/10/28 04:39:39;;;;;;;28.63;14.50;;;;;;;;;;4992751;28;20463;-52
2021/10/28 04:42:05;;;;;;;21.17;14.20;;;;;;;;;;4992840;28;20443;-49
2021/10/28 04:44:31;;;;;;;30.97;15.10;;;;;;;;;;4992472;28;20856;-49
2021/10/28 04:46:57;;;;;;;24.40;14.67;;;;;;;;;;4992719;28;20407;-52
2021/10/28 04:49:23;;;;;;;21.60;13.83;;;;;;;;;;4992744;28;20409;-49
2021/10/28 04:51:50;;;;;;;22.13;15.07;;;;;;;;;;4992663;28;20461;-49
2021/10/28 04:54:16;;;;;;;24.63;14.70;;;;;;;;;;4992399;28;20424;-49
2021/10/28 04:56:42;;;;;;;21.30;13.77;;;;;;;;;;4992520;28;20915;-49
2021/10/28 04:59:10;;;;;;;23.00;14.57;;;;;;;;;;4992456;28;20448;-50
2021/10/28 05:01:36;;;;;;;26.30;14.70;;;;;;;;;;4991233;28;20411;-49
2021/10/28 05:04:02;;;;;;;26.57;15.70;;;;;;;;;;4992210;28;20429;-49
2021/10/28 05:06:28;;;;;;;29.87;15.33;;;;;;;;;;4992616;28;20424;-49
2021/10/28 05:08:54;;;;;;;23.23;15.43;;;;;;;;;;4991170;28;20856;-49
2021/10/28 05:11:20;;;;;;;23.40;14.67;;;;;;;;;;4992505;28;20404;-49
2021/10/28 05:13:46;;;;;;;24.80;14.90;;;;;;;;;;4992103;28;20432;-49
2021/10/28 05:16:13;;;;;;;21.97;14.23;;;;;;;;;;4992451;28;20411;-49
2021/10/28 05:18:41;;;;;;;23.23;14.10;;;;;;;;;;4992324;28;20838;-48
2021/10/28 05:21:09;;;;;;;19.33;13.53;;;;;;;;;;4992408;28;20916;-49
2021/10/28 05:23:35;;;;;;;22.80;13.77;;;;;;;;;;4992049;28;20428;-49
2021/10/28 05:26:01;;;;;;;23.17;15.60;;;;;;;;;;4992336;28;20480;-49
2021/10/28 05:28:27;;;;;;;22.80;13.70;;;;;;;;;;4992155;28;20495;-49
2021/10/28 05:30:53;;;;;;;28.03;13.60;;;;;;;;;;4992300;28;20499;-49
2021/10/28 05:33:19;;;;;;;23.37;12.47;;;;;;;;;;4991921;28;20498;-49
2021/10/28 05:35:45;;;;;;;18.70;14.00;;;;;;;;;;4992426;28;20397;-49
2021/10/28 05:38:11;;;;;;;21.03;12.63;;;;;;;;;;4992144;28;20911;-49
2021/10/28 05:40:37;;;;;;;22.70;13.70;;;;;;;;;;4992193;28;20405;-49
2021/10/28 05:43:03;;;;;;;20.70;11.93;;;;;;;;;;4991748;28;20415;-50
2021/10/28 05:45:31;;;;;;;23.57;12.70;;;;;;;;;;4992108;28;20406;-51
2021/10/28 05:47:57;;;;;;;20.73;12.80;;;;;;;;;;4992035;28;20400;-51
2021/10/28 05:50:24;;;;;;;21.47;12.00;;;;;;;;;;4992127;28;20408;-49
2021/10/28 05:52:52;;;;;;;20.47;13.20;;;;;;;;;;4991869;28;20497;-49
2021/10/28 05:55:19;;;;;;;20.27;13.37;;;;;;;;;;4992062;28;20408;-49
2021/10/28 05:57:45;;;;;;;22.73;12.90;;;;;;;;;;4992054;28;20491;-49
2021/10/28 06:00:11;;;;;;;26.07;13.23;;;;;;;;;;4991996;28;21026;-49
2021/10/28 06:02:37;;;;;;;19.33;12.80;;;;;;;;;;4991840;28;20404;-49
2021/10/28 06:05:04;;;;;;;22.00;12.93;;;;;;;;;;4991937;28;20416;-49
2021/10/28 06:07:30;;;;;;;23.23;14.00;;;;;;;;;;4991893;28;20432;-49
2021/10/28 06:09:57;;;;;;;21.50;14.67;;;;;;;;;;4991925;28;20406;-49
2021/10/28 06:12:24;;;;;;;23.00;14.43;;;;;;;;;;4992739;28;20415;-49
2021/10/28 06:14:50;;;;;;;22.00;14.40;;;;;;;;;;4995542;28;20434;-49
2021/10/28 06:17:18;;;;;;;23.07;14.90;;;;;;;;;;4995456;28;20411;-49
2021/10/28 06:19:44;;;;;;;19.60;13.20;;;;;;;;;;4995416;28;20463;-49
2021/10/28 06:22:10;;;;;;;25.00;14.70;;;;;;;;;;4995396;28;20400;-49
2021/10/28 06:24:36;;;;;;;20.00;12.73;;;;;;;;;;4995010;28;20425;-49
2021/10/28 06:27:03;;;;;;;22.30;14.50;;;;;;;;;;4994652;28;20411;-50
2021/10/28 06:29:29;;;;;;;29.63;14.73;;;;;;;;;;4994008;28;20779;-49
2021/10/28 06:31:56;;;;;;;24.73;14.93;;;;;;;;;;4994148;28;20412;-49
2021/10/28 06:34:22;;;;;;;22.60;14.90;;;;;;;;;;4993830;28;20428;-49
2021/10/28 06:36:49;;;;;;;23.27;14.57;;;;;;;;;;4994451;28;20803;-49
2021/10/28 06:39:16;;;;;;;25.90;15.13;;;;;;;;;;4992915;28;20456;-49
2021/10/28 06:41:43;;;;;;;24.00;14.10;;;;;;;;;;4993406;28;20511;-49
2021/10/28 06:44:09;;;;;;;26.27;13.67;;;;;;;;;;4993999;28;20428;-52
2021/10/28 06:46:36;;;;;;;24.77;14.90;;;;;;;;;;4994582;28;20412;-52
2021/10/28 06:49:04;;;;;;;20.10;13.97;;;;;;;;;;4995000;28;20483;-51
2021/10/28 06:51:31;;;;;;;23.37;16.10;;;;;;;;;;4994500;28;20401;-49
2021/10/28 06:54:06;;;;;;;22.80;14.40;;;;;;;;;;4994559;28;20483;-49
2021/10/28 07:04:45;;;;;;;24.60;14.30;;;;;;;;;;4994643;28;20420;-49
2021/10/28 07:07:11;;;;;;;19.53;12.40;;;;;;;;;;4994455;28;20424;-49
2021/10/28 07:10:24;;;;;;;19.67;13.70;;;;;;;;;;4994692;28;20499;-49
2021/10/28 07:15:01;;;;;;;21.60;13.50;;;;;;;;;;4994481;28;20463;-49
2021/10/28 07:17:56;;;;;;;22.03;12.23;;;;;;;;;;4994464;28;20400;-49
2021/10/28 07:31:09;;;;;;;12.40;10.40;;;;;;;;;;4994249;28;20430;-49
2021/10/28 07:33:48;;;;;;;15.80;9.67;;;;;;;;;;4993948;28;20416;-50
2021/10/28 07:36:39;;;;;;;12.07;9.37;;;;;;;;;;4994273;28;20393;-52
2021/10/28 07:39:27;;;;;;;15.60;10.53;;;;;;;;;;4993952;28;20452;-52
2021/10/28 08:19:46;;;;;;;7.93;7.13;;;;;;;;;;4993194;28;20465;-49
2021/10/28 08:30:17;;;;;;;8.43;7.23;;;;;;;;;;4993077;28;20467;-49
2021/10/28 08:32:44;;;;;;;10.60;7.07;;;;;;;;;;4992802;28;20409;-49
2021/10/28 08:35:10;;;;;;;14.63;7.43;;;;;;;;;;4992520;28;20430;-49
2021/10/28 08:37:50;;;;;;;8.27;6.90;;;;;;;;;;4992876;28;20392;-49
2021/10/28 08:40:16;;;;;;;14.27;8.17;;;;;;;;;;4992828;28;20455;-49
2021/10/28 08:42:46;;;;;;;10.00;7.80;;;;;;;;;;4992588;28;20397;-49
2021/10/28 08:45:14;;;;;;;10.43;8.83;;;;;;;;;;4992741;28;20375;-49
2021/10/28 08:47:46;;;;;;;12.70;7.47;;;;;;;;;;4992708;28;20462;-49
2021/10/28 08:50:18;;;;;;;11.27;6.90;;;;;;;;;;4992748;28;20414;-49
2021/10/28 08:53:06;;;;;;;9.47;6.87;;;;;;;;;;4992528;28;20379;-49
2021/10/28 08:55:34;;;;;;;13.20;8.40;;;;;;;;;;4992589;28;20402;-49
2021/10/28 09:19:31;;;;;;;11.40;7.80;;;;;;;;;;4992678;28;20782;-49
2021/10/28 09:25:38;;;;;;;8.40;5.87;;;;;;;;;;4992616;28;20402;-51
2021/10/28 09:28:22;;;;;;;6.33;5.43;;;;;;;;;;4992162;28;20391;-50
2021/10/28 09:30:55;;;;;;;9.87;6.07;;;;;;;;;;4992339;28;20400;-51
2021/10/28 09:33:33;;;;;;;7.60;5.47;;;;;;;;;;4992002;28;20416;-50
2021/10/28 09:44:41;;;;;;;5.50;4.20;;;;;;;;;;4992801;28;20427;-51
2021/10/28 09:47:31;;;;;;;7.10;5.00;;;;;;;;;;4992559;28;20471;-51
2021/10/28 09:53:04;;;;;;;6.23;4.60;;;;;;;;;;4986511;28;20451;-50
2021/10/28 09:58:27;;;;;;;7.20;4.73;;;;;;;;;;4995787;28;20499;-53
2021/10/28 10:00:53;;;;;;;4.80;4.33;;;;;;;;;;4988231;28;20424;-50
2021/10/28 10:03:28;;;;;;;7.47;4.90;;;;;;;;;;4995404;28;20931;-51
2021/10/28 10:06:02;;;;;;;8.83;5.60;;;;;;;;;;4995579;28;20790;-50
2021/10/28 10:08:30;;;;;;;5.53;4.53;;;;;;;;;;4994353;28;20411;-52
2021/10/28 10:10:56;;;;;;;7.97;4.43;;;;;;;;;;4995536;28;20411;-50
2021/10/28 10:13:25;;;;;;;6.33;4.87;;;;;;;;;;4995418;28;20428;-50
2021/10/28 10:16:01;;;;;;;7.23;4.80;;;;;;;;;;4995360;28;20466;-53
2021/10/28 10:18:31;;;;;;;4.93;4.40;;;;;;;;;;4995272;28;20396;-51
2021/10/28 10:21:01;;;;;;;8.90;4.47;;;;;;;;;;4996089;28;20406;-53
2021/10/28 10:24:00;;;;;;;5.13;4.37;;;;;;;;;;4993114;28;20902;-53
2021/10/28 11:23:48;;;;;;;7.63;5.43;;;;;;;;;;4994069;28;20427;-50
2021/10/28 11:26:36;;;;;;;5.77;5.23;;;;;;;;;;4994259;28;20469;-53
2021/10/28 11:32:14;;;;;;;6.13;4.80;;;;;;;;;;4994444;28;20403;-50
2021/10/28 12:25:29;;;;;;;7.60;5.77;;;;;;;;;;4992766;28;20982;-50
2021/10/28 12:28:35;;;;;;;8.23;5.67;;;;;;;;;;4992769;28;20818;-50
2021/10/28 13:35:58;;;;;;;4.70;3.80;;;;;;;;;;4976972;28;20495;-53
2021/10/28 13:52:04;;;;;;;4.67;4.27;;;;;;;;;;4976638;28;20401;-54
2021/10/28 14:29:37;;;;;;;4.50;4.10;;;;;;;;;;4995452;28;20919;-51
2021/10/28 15:28:14;;;;;;;8.23;6.27;;;;;;;;;;4993970;28;20413;-50
2021/10/28 15:34:03;;;;;;;7.30;6.57;;;;;;;;;;4993209;28;20398;-49
2021/10/28 15:41:52;;;;;;;8.53;7.23;;;;;;;;;;4993519;28;20827;-50
2021/10/28 16:21:57;;;;;;;14.60;10.97;;;;;;;;;;4991615;28;20394;-50
2021/10/28 16:24:27;;;;;;;12.10;10.17;;;;;;;;;;4992442;28;20428;-49
2021/10/28 16:26:54;;;;;;;13.37;10.40;;;;;;;;;;4993013;28;20434;-51
2021/10/28 16:29:21;;;;;;;15.53;11.73;;;;;;;;;;4993238;28;20376;-50
2021/10/28 16:31:47;;;;;;;20.30;11.90;;;;;;;;;;4992587;28;20463;-49
2021/10/28 16:34:13;;;;;;;14.00;10.90;;;;;;;;;;4992678;28;20445;-50
2021/10/28 16:36:39;;;;;;;18.57;10.77;;;;;;;;;;4992864;28;20495;-50
2021/10/28 16:39:11;;;;;;;15.90;12.40;;;;;;;;;;4992762;28;20423;-50
2021/10/28 16:41:38;;;;;;;14.47;11.13;;;;;;;;;;4992950;28;20403;-49
2021/10/28 16:44:04;;;;;;;14.17;11.10;;;;;;;;;;4992490;28;20395;-50
2021/10/28 16:46:31;;;;;;;15.07;10.90;;;;;;;;;;4992743;28;20404;-51
2021/10/28 16:48:57;;;;;;;16.73;11.70;;;;;;;;;;4992713;28;20406;-49
2021/10/28 16:51:23;;;;;;;16.90;12.03;;;;;;;;;;4991484;28;20415;-49
2021/10/28 16:53:50;;;;;;;17.73;11.17;;;;;;;;;;4992403;28;20884;-50
2021/10/28 16:56:16;;;;;;;16.90;11.53;;;;;;;;;;4992513;28;20772;-49
2021/10/28 16:58:42;;;;;;;18.73;13.53;;;;;;;;;;4992684;28;20404;-49
2021/10/28 17:01:09;;;;;;;15.00;11.33;;;;;;;;;;4992893;28;20395;-49
2021/10/28 17:03:35;;;;;;;16.60;11.97;;;;;;;;;;4992321;28;20420;-50
2021/10/28 17:06:01;;;;;;;16.97;12.00;;;;;;;;;;4992418;28;20419;-50
2021/10/28 17:08:29;;;;;;;16.93;12.40;;;;;;;;;;4991960;28;20910;-50
2021/10/28 17:10:55;;;;;;;21.67;13.17;;;;;;;;;;4992781;28;20404;-50
2021/10/28 17:13:21;;;;;;;17.33;13.80;;;;;;;;;;4992203;28;20422;-50
2021/10/28 17:15:47;;;;;;;17.60;12.73;;;;;;;;;;4992454;28;20404;-50
2021/10/28 17:18:13;;;;;;;17.90;13.77;;;;;;;;;;4992354;28;20831;-51
2021/10/28 17:20:39;;;;;;;26.20;15.27;;;;;;;;;;4992344;28;20450;-51
2021/10/28 17:23:09;;;;;;;21.30;14.93;;;;;;;;;;4992071;28;20465;-51
2021/10/28 17:25:40;;;;;;;21.43;14.20;;;;;;;;;;4992497;28;20783;-50
2021/10/28 17:28:08;;;;;;;23.07;14.53;;;;;;;;;;4992356;28;20402;-50
2021/10/28 17:30:34;;;;;;;21.53;14.80;;;;;;;;;;4992394;28;20791;-50
2021/10/28 17:33:00;;;;;;;17.30;13.27;;;;;;;;;;4991985;28;20830;-50
2021/10/28 17:35:26;;;;;;;21.90;13.60;;;;;;;;;;4992194;28;20414;-52
2021/10/28 17:37:52;;;;;;;19.60;14.30;;;;;;;;;;4992231;28;20834;-52
2021/10/28 17:40:18;;;;;;;25.20;15.80;;;;;;;;;;4992175;28;20514;-52
2021/10/28 17:42:45;;;;;;;24.50;16.37;;;;;;;;;;4992055;28;20399;-50
2021/10/28 17:45:12;;;;;;;23.83;14.67;;;;;;;;;;4992163;28;20424;-50
2021/10/28 17:47:41;;;;;;;19.30;13.93;;;;;;;;;;4992155;28;20410;-50
2021/10/28 17:50:08;;;;;;;23.97;15.17;;;;;;;;;;4992111;28;20414;-50
2021/10/28 17:52:34;;;;;;;24.50;14.20;;;;;;;;;;4992081;28;20911;-50
2021/10/28 17:55:02;;;;;;;25.37;14.07;;;;;;;;;;4991972;28;20426;-50
2021/10/28 17:57:29;;;;;;;21.57;15.87;;;;;;;;;;4992131;28;20409;-50
2021/10/28 17:59:55;;;;;;;19.50;14.10;;;;;;;;;;4992034;28;20453;-50
2021/10/28 18:02:21;;;;;;;26.03;16.03;;;;;;;;;;4991981;28;20756;-50
2021/10/28 18:04:47;;;;;;;22.37;14.47;;;;;;;;;;4991793;28;20425;-49
2021/10/28 18:07:13;;;;;;;20.40;14.60;;;;;;;;;;4991900;28;20423;-49
2021/10/28 18:09:43;;;;;;;20.13;14.07;;;;;;;;;;4994974;28;20405;-48
2021/10/28 18:12:10;;;;;;;27.43;16.17;;;;;;;;;;4995778;28;20438;-50
2021/10/28 18:14:36;;;;;;;24.23;14.80;;;;;;;;;;4995356;28;20424;-50
2021/10/28 18:17:02;;;;;;;24.40;17.03;;;;;;;;;;4995915;28;20483;-50
2021/10/28 18:19:28;;;;;;;24.33;15.53;;;;;;;;;;4995474;28;20456;-50
2021/10/28 18:21:55;;;;;;;23.93;16.87;;;;;;;;;;4995497;28;20404;-50
2021/10/28 18:24:25;;;;;;;21.30;14.53;;;;;;;;;;4995169;28;20428;-50
2021/10/28 18:26:52;;;;;;;22.70;16.27;;;;;;;;;;4995332;28;20402;-51
2021/10/28 18:29:18;;;;;;;28.10;16.57;;;;;;;;;;4995271;28;20409;-50
2021/10/28 18:31:45;;;;;;;26.57;16.10;;;;;;;;;;4995210;28;20417;-49
2021/10/28 18:34:11;;;;;;;26.37;15.80;;;;;;;;;;4995005;28;20433;-50
2021/10/28 18:36:37;;;;;;;28.10;16.43;;;;;;;;;;4995281;28;20412;-50
2021/10/28 18:39:04;;;;;;;24.77;17.10;;;;;;;;;;4995145;28;20510;-49
2021/10/28 18:41:30;;;;;;;24.87;17.37;;;;;;;;;;4995159;28;20835;-50
2021/10/28 18:43:56;;;;;;;28.17;17.47;;;;;;;;;;4995249;28;20452;-53
2021/10/28 18:46:22;;;;;;;26.23;17.80;;;;;;;;;;4994861;28;20451;-50
2021/10/28 18:48:53;;;;;;;28.60;17.20;;;;;;;;;;4995041;28;20432;-50
2021/10/28 18:51:20;;;;;;;29.30;16.90;;;;;;;;;;4995022;28;20408;-50
2021/10/28 18:53:47;;;;;;;33.77;17.00;;;;;;;;;;4994747;28;20416;-49
2021/10/28 18:56:13;;;;;;;30.50;16.70;;;;;;;;;;4994919;28;20412;-50
2021/10/28 18:58:40;;;;;;;27.93;16.43;;;;;;;;;;4994584;28;20440;-51
2021/10/28 19:01:06;;;;;;;22.77;15.67;;;;;;;;;;4994742;28;20459;-50
2021/10/28 19:03:32;;;;;;;25.30;15.97;;;;;;;;;;4994500;28;20804;-50
2021/10/28 19:05:59;;;;;;;25.23;16.30;;;;;;;;;;4994622;28;20402;-49
2021/10/28 19:08:25;;;;;;;32.50;15.80;;;;;;;;;;4994558;28;20408;-50
2021/10/28 19:10:52;;;;;;;25.20;15.70;;;;;;;;;;4994654;28;20409;-50
2021/10/28 19:13:18;;;;;;;28.13;16.30;;;;;;;;;;4994190;28;20856;-51
2021/10/28 19:15:44;;;;;;;28.57;18.20;;;;;;;;;;4994558;28;21019;-49
2021/10/28 19:18:11;;;;;;;25.43;16.13;;;;;;;;;;4994430;28;20404;-49
2021/10/28 19:20:37;;;;;;;26.07;16.03;;;;;;;;;;4994227;28;20522;-50
2021/10/28 19:23:06;;;;;;;26.73;16.97;;;;;;;;;;4994114;28;20404;-50
2021/10/28 19:25:32;;;;;;;22.60;14.50;;;;;;;;;;4994426;28;20401;-50
2021/10/28 19:27:58;;;;;;;29.03;16.23;;;;;;;;;;4994133;28;20411;-49
2021/10/28 19:32:51;;;;;;;24.20;16.40;;;;;;;;;;4994194;28;20506;-50
2021/10/28 19:35:20;;;;;;;30.13;15.30;;;;;;;;;;4994195;28;20459;-50
2021/10/28 19:37:53;;;;;;;23.70;15.13;;;;;;;;;;4994161;28;20496;-50
2021/10/28 19:48:00;;;;;;;23.23;14.97;;;;;;;;;;4994033;28;20779;-49
2021/10/28 19:50:26;;;;;;;27.40;15.43;;;;;;;;;;4994250;28;20404;-49
2021/10/28 19:52:52;;;;;;;25.97;15.67;;;;;;;;;;4993503;28;20409;-49
2021/10/28 19:55:19;;;;;;;22.47;13.63;;;;;;;;;;4993773;28;20404;-50
2021/10/28 19:57:50;;;;;;;22.33;14.50;;;;;;;;;;4993689;28;20470;-51
2021/10/28 20:05:37;;;;;;;25.33;15.07;;;;;;;;;;4993505;28;20433;-51
2021/10/28 20:13:05;;;;;;;21.60;14.37;;;;;;;;;;4993555;28;20420;-49
2021/10/28 20:22:06;;;;;;;20.80;13.40;;;;;;;;;;4993836;28;20432;-49
2021/10/28 20:24:32;;;;;;;26.77;14.87;;;;;;;;;;4993073;28;20770;-49
2021/10/28 20:26:57;;;;;;;24.07;14.87;;;;;;;;;;4993094;28;20370;-50
2021/10/28 20:29:23;;;;;;;23.90;14.10;;;;;;;;;;4993110;28;20548;-50
2021/10/28 20:31:50;;;;;;;23.07;14.80;;;;;;;;;;4992614;28;20405;-51
2021/10/28 20:34:27;;;;;;;26.43;14.53;;;;;;;;;;4992721;28;20518;-49
2021/10/28 20:37:06;;;;;;;23.50;14.93;;;;;;;;;;4992981;28;20404;-49
2021/10/28 20:39:33;;;;;;;22.13;14.07;;;;;;;;;;4992970;28;20807;-51
2021/10/28 20:41:59;;;;;;;21.77;13.87;;;;;;;;;;4992898;28;20431;-50
2021/10/28 20:44:25;;;;;;;18.00;12.47;;;;;;;;;;4992646;28;20530;-49
2021/10/28 20:46:51;;;;;;;26.80;14.13;;;;;;;;;;4992838;28;20896;-50
2021/10/28 20:49:17;;;;;;;17.20;11.80;;;;;;;;;;4992763;28;20914;-50
2021/10/28 20:51:43;;;;;;;21.60;13.50;;;;;;;;;;4992853;28;20461;-50
2021/10/28 20:54:09;;;;;;;21.90;13.50;;;;;;;;;;4992505;28;20432;-50
2021/10/28 20:56:36;;;;;;;22.80;14.47;;;;;;;;;;4992624;28;20405;-50
2021/10/28 20:59:02;;;;;;;22.47;13.67;;;;;;;;;;4992592;28;20448;-50
2021/10/28 21:01:28;;;;;;;22.13;14.00;;;;;;;;;;4992692;28;20411;-50
2021/10/28 21:03:54;;;;;;;16.13;12.20;;;;;;;;;;4992116;28;20421;-50
2021/10/28 21:06:21;;;;;;;19.77;12.10;;;;;;;;;;4991404;28;20843;-50
2021/10/28 21:08:47;;;;;;;19.53;11.67;;;;;;;;;;4991124;28;20416;-50
2021/10/28 21:11:13;;;;;;;20.63;13.53;;;;;;;;;;4994577;28;20405;-51
2021/10/28 21:13:39;;;;;;;21.90;13.20;;;;;;;;;;4993068;28;20459;-51
2021/10/28 21:16:05;;;;;;;21.30;12.13;;;;;;;;;;4990389;28;20455;-51
2021/10/28 21:18:32;;;;;;;19.47;13.03;;;;;;;;;;4991540;28;20438;-50
2021/10/28 21:20:58;;;;;;;19.10;12.20;;;;;;;;;;4991806;28;20460;-51
2021/10/28 21:23:25;;;;;;;18.30;12.17;;;;;;;;;;4990659;28;20424;-52
2021/10/28 21:25:51;;;;;;;20.57;12.27;;;;;;;;;;4992801;28;20400;-51
2021/10/28 21:28:17;;;;;;;17.10;10.67;;;;;;;;;;4992705;28;20433;-52
2021/10/28 21:30:44;;;;;;;15.80;11.03;;;;;;;;;;4991617;28;20510;-51
2021/10/28 21:33:11;;;;;;;17.67;11.13;;;;;;;;;;4991345;28;20432;-51
2021/10/28 21:35:36;;;;;;;21.57;11.83;;;;;;;;;;4991731;28;20415;-51
2021/10/28 21:38:03;;;;;;;15.23;11.50;;;;;;;;;;4991956;28;20405;-51
2021/10/28 21:40:29;;;;;;;18.27;11.87;;;;;;;;;;4991628;28;20487;-51
2021/10/28 21:42:57;;;;;;;17.83;11.53;;;;;;;;;;4991582;28;20404;-51
2021/10/28 21:45:24;;;;;;;14.80;11.13;;;;;;;;;;4995274;28;20404;-51
2021/10/28 21:47:51;;;;;;;18.50;11.27;;;;;;;;;;4996070;28;20412;-51
2021/10/28 21:50:18;;;;;;;14.90;11.03;;;;;;;;;;4994493;28;20441;-50
2021/10/28 21:52:48;;;;;;;17.13;10.37;;;;;;;;;;4996429;28;20419;-52
2021/10/28 22:06:33;;;;;;;19.73;11.53;;;;;;;;;;4994831;28;20808;-49
2021/10/28 22:25:26;;;;;;;15.70;9.47;;;;;;;;;;4992297;28;20430;-49
2021/10/28 22:27:52;;;;;;;15.30;8.83;;;;;;;;;;4995221;28;20404;-50
2021/10/28 22:30:18;;;;;;;12.73;8.60;;;;;;;;;;4995286;28;20974;-50
2021/10/28 22:32:45;;;;;;;14.97;9.23;;;;;;;;;;4994970;28;20408;-50
2021/10/28 22:35:15;;;;;;;14.73;9.73;;;;;;;;;;4994966;28;20424;-50
2021/10/28 22:40:17;;;;;;;15.13;9.87;;;;;;;;;;4995089;28;20463;-49
2021/10/28 22:42:44;;;;;;;13.23;10.00;;;;;;;;;;4994945;28;20412;-52
2021/10/28 22:45:10;;;;;;;12.17;8.40;;;;;;;;;;4995011;28;20421;-50
2021/10/28 22:47:36;;;;;;;15.53;8.87;;;;;;;;;;4995002;28;20451;-49
2021/10/28 22:50:04;;;;;;;12.03;8.43;;;;;;;;;;4994861;28;20915;-50
2021/10/28 22:52:32;;;;;;;12.47;8.50;;;;;;;;;;4994961;28;20547;-50
2021/10/28 22:55:02;;;;;;;12.30;8.97;;;;;;;;;;4994132;28;20432;-51
2021/10/28 23:00:05;;;;;;;14.57;8.33;;;;;;;;;;4994823;28;20454;-50
2021/10/28 23:20:52;;;;;;;11.07;7.90;;;;;;;;;;4994425;28;20459;-49
2021/10/28 23:23:20;;;;;;;13.20;8.47;;;;;;;;;;4993940;28;20425;-50
2021/10/28 23:25:46;;;;;;;9.37;7.87;;;;;;;;;;4994350;28;20832;-50
2021/10/28 23:28:12;;;;;;;13.30;8.73;;;;;;;;;;4994275;28;20543;-51
2021/10/28 23:30:39;;;;;;;10.83;7.10;;;;;;;;;;4994180;28;20431;-49
2021/10/28 23:33:07;;;;;;;12.53;8.70;;;;;;;;;;4994103;28;20415;-50
2021/10/28 23:35:34;;;;;;;10.20;8.73;;;;;;;;;;4994235;28;20460;-49
2021/10/28 23:38:00;;;;;;;15.03;8.33;;;;;;;;;;4993928;28;20405;-49
2021/10/28 23:40:26;;;;;;;11.60;7.40;;;;;;;;;;4994008;28;20545;-49
2021/10/28 23:42:53;;;;;;;8.97;7.40;;;;;;;;;;4993780;28;20443;-49
2021/10/28 23:45:19;;;;;;;13.30;7.57;;;;;;;;;;4993970;28;20413;-51
2021/10/28 23:47:45;;;;;;;19.37;8.07;;;;;;;;;;4993882;28;20849;-51
2021/10/28 23:50:11;;;;;;;13.70;7.57;;;;;;;;;;4993919;28;20771;-49
2021/10/28 23:52:37;;;;;;;13.63;9.07;;;;;;;;;;4993516;28;20414;-50
2021/10/28 23:55:03;;;;;;;12.60;8.93;;;;;;;;;;4993769;28;20948;-49
2021/10/28 23:57:30;;;;;;;10.90;7.53;;;;;;;;;;4993691;28;20408;-49
2021/10/28 23:59:55;;;;;;;12.30;8.13;;;;;;;;;;4993652;28;20447;-50
